Time,TemperatureF,DewpointF,PressureIn,WindDirection,WindDirectionDegrees,WindSpeedMPH,WindSpeedGustMPH,Humidity,HourlyPrecipIn,Conditions,Clouds,dailyrainin,SoftwareType,DateUTC
2013-02-21 18:29:00,53.3,20.2,27.88,West,270,1.1,4.3,27,0.00,,,0.00,WSDL version 423,2013-02-21 23:29:00,
2013-02-21 18:34:00,53.0,19.9,29.85,NW,326,2.5,4.3,27,0.00,,,0.00,WSDL version 423,2013-02-21 23:34:00,
2013-02-21 18:39:00,52.8,19.7,29.85,WSW,250,3.5,6.3,27,0.00,,,0.00,WSDL version 423,2013-02-21 23:39:00,
2013-02-21 18:44:00,52.7,19.7,29.85,WSW,253,2.0,6.3,27,0.00,,,0.00,WSDL version 423,2013-02-21 23:44:00,
2013-02-21 18:49:00,52.6,19.5,29.91,SSE,155,0.8,3.1,27,0.00,,,0.00,WSDL version 423,2013-02-21 23:49:00,
2013-02-21 18:54:00,52.3,19.3,29.91,NE,42,0.9,2.7,27,0.00,,,0.00,WSDL version 423,2013-02-21 23:54:00,
2013-02-21 18:59:00,51.9,19.0,29.91,NE,35,1.4,2.9,27,0.00,,,0.00,WSDL version 423,2013-02-21 23:59:00,
2013-02-21 19:09:00,51.7,18.8,29.91,SSE,158,0.0,3.8,27,0.00,,,0.00,WSDL version 423,2013-02-22 00:09:00,
2013-02-21 19:14:00,51.4,18.5,29.91,SSE,148,0.6,3.8,27,0.00,,,0.00,WSDL version 423,2013-02-22 00:14:00,
2013-02-21 19:19:00,51.2,18.8,29.94,NW,307,2.6,3.8,28,0.00,,,0.00,WSDL version 423,2013-02-22 00:19:00,
2013-02-21 19:24:00,50.5,21.6,29.94,SE,138,1.7,3.8,32,0.00,,,0.00,WSDL version 423,2013-02-22 00:24:00,
2013-02-21 19:29:00,49.9,22.3,29.94,ESE,115,0.5,3.6,37,0.00,,,0.00,WSDL version 423,2013-02-22 00:29:00,
2013-02-21 19:34:00,48.9,25.5,29.97,East,93,1.9,3.6,43,0.00,,,0.00,WSDL version 423,2013-02-22 00:34:00,
2013-02-21 19:39:00,47.7,27.1,29.97,East,98,2.5,3.6,44,0.00,,,0.00,WSDL version 423,2013-02-22 00:39:00,
2013-02-21 19:44:00,46.8,28.5,29.97,East,80,2.1,4.0,50,0.00,,,0.00,WSDL version 423,2013-02-22 00:44:00,
2013-02-21 19:49:00,45.8,28.6,29.97,East,84,1.5,4.0,52,0.04,,,0.04,WSDL version 423,2013-02-22 00:49:00,
2013-02-21 19:54:00,44.8,29.4,29.97,ENE,68,1.7,2.7,54,0.04,,,0.04,WSDL version 423,2013-02-22 00:54:00,
2013-02-21 19:59:00,44.0,29.7,29.97,NNE,31,1.2,2.7,57,0.08,,,0.08,WSDL version 423,2013-02-22 00:59:00,
2013-02-21 20:04:00,43.5,29.1,29.97,East,79,1.4,2.7,59,0.08,,,0.08,WSDL version 423,2013-02-22 01:04:00,
2013-02-21 20:09:00,43.0,30.2,29.97,SSW,200,1.6,3.1,61,0.13,,,0.13,WSDL version 423,2013-02-22 01:09:00,
2013-02-21 20:14:00,42.9,30.2,29.97,SSE,165,1.2,3.1,61,0.13,,,0.13,WSDL version 423,2013-02-22 01:14:00,
2013-02-21 20:19:00,42.8,32.9,29.97,ENE,70,1.5,2.7,72,0.17,,,0.17,WSDL version 423,2013-02-22 01:19:00,
2013-02-21 20:24:00,42.3,33.2,29.97,East,80,2.0,3.6,71,0.21,,,0.21,WSDL version 423,2013-02-22 01:24:00,
2013-02-21 20:29:00,41.9,33.4,29.97,North,10,1.4,5.4,72,0.21,,,0.21,WSDL version 423,2013-02-22 01:29:00,
2013-02-21 20:34:00,41.5,33.8,29.91,SW,225,1.1,5.4,73,0.25,,,0.25,WSDL version 423,2013-02-22 01:34:00,
2013-02-21 20:39:00,41.4,32.8,29.91,WSW,256,1.6,4.7,71,0.25,,,0.25,WSDL version 423,2013-02-22 01:39:00,
2013-02-21 20:44:00,41.3,33.7,29.91,SW,230,1.5,3.4,75,0.29,,,0.29,WSDL version 423,2013-02-22 01:44:00,
2013-02-21 20:49:00,41.2,34.2,29.94,NW,323,1.6,3.4,75,0.25,,,0.29,WSDL version 423,2013-02-22 01:49:00,
2013-02-21 20:54:00,41.2,33.8,29.94,West,260,1.5,3.1,75,0.29,,,0.33,WSDL version 423,2013-02-22 01:54:00,
2013-02-21 20:59:00,41.1,34.3,29.94,NNE,15,0.7,2.7,77,0.25,,,0.33,WSDL version 423,2013-02-22 01:59:00,
2013-02-21 21:04:00,41.0,34.4,29.94,WNW,301,1.5,3.1,77,0.29,,,0.37,WSDL version 423,2013-02-22 02:04:00,
2013-02-21 21:09:00,41.0,34.8,29.94,West,275,1.7,3.1,80,0.24,,,0.37,WSDL version 423,2013-02-22 02:09:00,
2013-02-21 21:14:00,40.8,35.4,29.94,SSW,208,1.8,3.6,81,0.28,,,0.41,WSDL version 423,2013-02-22 02:14:00,
2013-02-21 21:19:00,40.8,35.2,29.94,SSW,208,1.6,3.6,81,0.24,,,0.41,WSDL version 423,2013-02-22 02:19:00,
2013-02-21 21:24:00,40.9,35.8,29.94,ENE,64,2.1,3.6,82,0.20,,,0.41,WSDL version 423,2013-02-22 02:24:00,
2013-02-21 21:29:00,40.8,35.6,29.94,South,177,0.4,2.9,80,0.25,,,0.46,WSDL version 423,2013-02-22 02:29:00,
2013-02-21 21:34:00,40.8,34.9,29.97,NE,39,1.1,2.9,79,0.21,,,0.46,WSDL version 423,2013-02-22 02:34:00,
2013-02-21 21:39:00,40.8,34.8,29.97,WSW,243,1.3,2.5,79,0.21,,,0.46,WSDL version 423,2013-02-22 02:39:00,
2013-02-21 21:49:00,40.9,35.7,29.97,NW,325,0.8,2.7,82,0.25,,,0.54,WSDL version 423,2013-02-22 02:49:00,
2013-02-21 21:54:00,40.9,36.1,29.97,NE,48,1.9,4.0,83,0.21,,,0.54,WSDL version 423,2013-02-22 02:54:00,
2013-02-21 21:59:00,41.0,36.5,29.97,SE,138,1.9,4.0,86,0.21,,,0.54,WSDL version 423,2013-02-22 02:59:00,
2013-02-21 22:04:00,41.0,36.7,29.97,WSW,250,0.9,3.6,83,0.17,,,0.54,WSDL version 423,2013-02-22 03:04:00,
2013-02-21 22:09:00,41.0,36.6,29.97,East,96,1.3,3.4,84,0.17,,,0.54,WSDL version 423,2013-02-22 03:09:00,
2013-02-21 22:14:00,41.0,36.2,29.97,North,6,0.4,2.9,82,0.13,,,0.54,WSDL version 423,2013-02-22 03:14:00,
2013-02-21 22:19:00,41.1,36.3,30.00,East,93,1.6,3.1,84,0.13,,,0.54,WSDL version 423,2013-02-22 03:19:00,
2013-02-21 22:24:00,41.1,37.2,30.00,ESE,118,1.7,3.6,86,0.13,,,0.54,WSDL version 423,2013-02-22 03:24:00,
2013-02-21 22:29:00,41.0,36.7,30.00,SE,138,0.9,3.6,84,0.08,,,0.54,WSDL version 423,2013-02-22 03:29:00,
2013-02-21 22:34:00,41.1,36.5,30.00,NNE,15,1.0,2.5,83,0.08,,,0.54,WSDL version 423,2013-02-22 03:34:00,
2013-02-21 22:39:00,41.2,36.9,30.00,ENE,64,1.2,2.7,86,0.12,,,0.58,WSDL version 423,2013-02-22 03:39:00,
2013-02-21 22:44:00,41.0,36.7,30.00,ESE,108,0.0,2.7,84,0.08,,,0.58,WSDL version 423,2013-02-22 03:44:00,
2013-02-21 22:49:00,41.0,36.5,30.00,SSE,158,0.0,1.3,83,0.04,,,0.58,WSDL version 423,2013-02-22 03:49:00,
2013-02-21 22:54:00,41.0,36.3,30.00,SSE,158,0.0,0.0,83,0.04,,,0.58,WSDL version 423,2013-02-22 03:54:00,
2013-02-21 22:59:00,41.0,36.2,30.00,ENE,73,0.0,0.0,82,0.04,,,0.58,WSDL version 423,2013-02-22 03:59:00,
2013-02-21 23:04:00,41.0,36.3,30.00,WSW,248,1.2,2.0,84,0.04,,,0.58,WSDL version 423,2013-02-22 04:04:00,
2013-02-21 23:09:00,41.0,36.5,30.00,WSW,242,0.0,2.0,83,0.04,,,0.58,WSDL version 423,2013-02-22 04:09:00,
2013-02-21 23:14:00,41.0,36.2,30.00,ENE,73,1.6,2.7,84,0.08,,,0.62,WSDL version 423,2013-02-22 04:14:00,
2013-02-21 23:24:00,41.0,37.5,30.03,NNW,338,0.5,3.1,87,0.08,,,0.62,WSDL version 423,2013-02-22 04:24:00,
2013-02-21 23:29:00,40.9,37.3,30.03,WSW,250,0.0,1.3,87,0.13,,,0.67,WSDL version 423,2013-02-22 04:29:00,
2013-02-21 23:34:00,40.8,37.1,30.03,South,173,0.7,2.0,87,0.13,,,0.67,WSDL version 423,2013-02-22 04:34:00,
2013-02-21 23:39:00,40.8,36.9,30.03,SSE,158,0.0,2.0,86,0.09,,,0.67,WSDL version 423,2013-02-22 04:39:00,
2013-02-21 23:44:00,40.6,36.7,30.03,South,180,1.1,2.2,86,0.09,,,0.67,WSDL version 423,2013-02-22 04:44:00,
2013-02-21 23:49:00,40.7,37.0,30.03,SSW,213,0.6,2.2,87,0.13,,,0.71,WSDL version 423,2013-02-22 04:49:00,
2013-02-21 23:54:00,40.7,37.0,30.03,WNW,300,1.4,2.7,87,0.13,,,0.71,WSDL version 423,2013-02-22 04:54:00,
2013-02-21 23:59:00,40.6,37.0,30.03,SW,225,0.0,2.7,87,0.17,,,0.75,WSDL version 423,2013-02-22 04:59:00,